Main page
METAR-TAF:

METAR-TAF

Airports :

Brighton, England

Shoreham Airport

latitude: 50-50N, longitude: 000-17W, elevation: 2 m

Current weather observation

The report was made 29 minutes ago, at 08:50 UTC
Wind 6 kt from the Southwest
Temperature 11°C
Humidity 94%
Pressure 1023 hPa
Visibility 10 km or more
Few clouds at a height of 800 ft
Broken clouds at a height of 3000 ft

METAR: EGKA 290850Z 22006KT 9999 FEW008 BKN030 11/10 Q1023

Time: 10:19 (09:19 UTC)

Forecast

The report was made 1 hour and 21 minutes ago, at 07:58 UTC
Forecast valid from 29 at 09 UTC to 29 at 18 UTC
Wind 12 kt from the Southwest
Visibility 10 km or more
Scattered clouds at a height of 900 ft
Broken clouds at a height of 2500 ft
Temporary
from 29 at 09 UTC to 29 at 12 UTC
Visibility: 9000 m
Broken clouds at a height of 900 ft

TAF: EGKA 290758Z 2909/2918 22012KT 9999 SCT009 BKN025 TEMPO 2909/2912 9000 BKN009

Weather observations and forecasts of more than 4000 airports (METAR and TAF reports).

The available stations are represented by yellow and red dots on the map.

Hover mouse over dot to see the name of the station.

Then click to see weather observations and forecasts.

To change the map : click on the green buttons with a black cross to zoom in, on the green button with a dash to zoom out, or on the green arrows for adjacent maps.


METAR-TAF: